sensor_id;sensor_type;location;lat;lon;timestamp;P1;durP1;ratioP1;P2;durP2;ratioP2
6356;SDS011;3211;53.452;-2.264;2023-07-13T00:00:02;7.10;;;2.50;;
6356;SDS011;3211;53.452;-2.264;2023-07-13T00:02:50;3.93;;;2.47;;
6356;SDS011;3211;53.452;-2.264;2023-07-13T00:05:33;5.73;;;2.23;;
6356;SDS011;3211;53.452;-2.264;2023-07-13T00:08:15;4.73;;;2.47;;
6356;SDS011;3211;53.452;-2.264;2023-07-13T00:10:57;5.87;;;2.40;;
6356;SDS011;3211;53.452;-2.264;2023-07-13T00:13:39;6.03;;;3.17;;
6356;SDS011;3211;53.452;-2.264;2023-07-13T00:16:22;3.00;;;2.10;;
6356;SDS011;3211;53.452;-2.264;2023-07-13T00:19:05;3.63;;;2.00;;
6356;SDS011;3211;53.452;-2.264;2023-07-13T00:21:47;5.27;;;2.03;;
6356;SDS011;3211;53.452;-2.264;2023-07-13T00:24:29;9.90;;;2.90;;
6356;SDS011;3211;53.452;-2.264;2023-07-13T00:27:11;3.90;;;2.00;;
6356;SDS011;3211;53.452;-2.264;2023-07-13T00:29:54;4.60;;;2.23;;
6356;SDS011;3211;53.452;-2.264;2023-07-13T00:32:36;3.60;;;2.03;;
6356;SDS011;3211;53.452;-2.264;2023-07-13T00:35:20;5.27;;;2.00;;
6356;SDS011;3211;53.452;-2.264;2023-07-13T00:38:02;5.87;;;1.90;;
6356;SDS011;3211;53.452;-2.264;2023-07-13T00:40:44;3.60;;;2.07;;
6356;SDS011;3211;53.452;-2.264;2023-07-13T00:43:27;3.90;;;2.17;;
6356;SDS011;3211;53.452;-2.264;2023-07-13T00:46:20;2.93;;;2.10;;
6356;SDS011;3211;53.452;-2.264;2023-07-13T00:49:05;2.50;;;1.70;;
6356;SDS011;3211;53.452;-2.264;2023-07-13T00:51:51;2.37;;;2.13;;
6356;SDS011;3211;53.452;-2.264;2023-07-13T00:54:36;2.13;;;1.77;;
6356;SDS011;3211;53.452;-2.264;2023-07-13T00:57:20;3.20;;;1.90;;
6356;SDS011;3211;53.452;-2.264;2023-07-13T01:00:04;4.37;;;2.17;;
6356;SDS011;3211;53.452;-2.264;2023-07-13T01:02:49;7.63;;;2.20;;
6356;SDS011;3211;53.452;-2.264;2023-07-13T01:05:32;4.47;;;2.03;;
6356;SDS011;3211;53.452;-2.264;2023-07-13T01:08:17;4.87;;;3.07;;
6356;SDS011;3211;53.452;-2.264;2023-07-13T01:10:58;4.87;;;2.60;;
6356;SDS011;3211;53.452;-2.264;2023-07-13T01:13:40;5.97;;;2.80;;
6356;SDS011;3211;53.452;-2.264;2023-07-13T01:16:24;4.07;;;2.10;;
6356;SDS011;3211;53.452;-2.264;2023-07-13T01:19:11;3.00;;;2.03;;
6356;SDS011;3211;53.452;-2.264;2023-07-13T01:21:59;3.93;;;2.30;;
6356;SDS011;3211;53.452;-2.264;2023-07-13T01:24:42;3.80;;;2.77;;
6356;SDS011;3211;53.452;-2.264;2023-07-13T01:27:25;6.23;;;2.40;;
6356;SDS011;3211;53.452;-2.264;2023-07-13T01:30:08;5.50;;;2.37;;
6356;SDS011;3211;53.452;-2.264;2023-07-13T01:32:51;5.67;;;2.40;;
6356;SDS011;3211;53.452;-2.264;2023-07-13T01:35:33;3.70;;;2.13;;
6356;SDS011;3211;53.452;-2.264;2023-07-13T01:38:16;5.30;;;2.30;;
6356;SDS011;3211;53.452;-2.264;2023-07-13T01:41:00;3.17;;;2.30;;
6356;SDS011;3211;53.452;-2.264;2023-07-13T01:43:42;5.07;;;2.30;;
6356;SDS011;3211;53.452;-2.264;2023-07-13T01:46:24;4.47;;;2.50;;
6356;SDS011;3211;53.452;-2.264;2023-07-13T01:49:06;9.77;;;2.43;;
6356;SDS011;3211;53.452;-2.264;2023-07-13T01:51:48;3.23;;;2.33;;
6356;SDS011;3211;53.452;-2.264;2023-07-13T01:54:31;6.73;;;3.00;;
6356;SDS011;3211;53.452;-2.264;2023-07-13T01:57:14;10.53;;;2.40;;
6356;SDS011;3211;53.452;-2.264;2023-07-13T01:59:56;8.93;;;2.10;;
6356;SDS011;3211;53.452;-2.264;2023-07-13T02:02:37;8.10;;;3.17;;
6356;SDS011;3211;53.452;-2.264;2023-07-13T02:05:19;3.33;;;2.30;;
6356;SDS011;3211;53.452;-2.264;2023-07-13T02:08:01;4.73;;;2.23;;
6356;SDS011;3211;53.452;-2.264;2023-07-13T02:10:45;8.60;;;2.33;;
6356;SDS011;3211;53.452;-2.264;2023-07-13T02:13:27;5.33;;;2.50;;
6356;SDS011;3211;53.452;-2.264;2023-07-13T02:16:09;5.83;;;3.00;;
6356;SDS011;3211;53.452;-2.264;2023-07-13T02:18:51;7.30;;;3.03;;
6356;SDS011;3211;53.452;-2.264;2023-07-13T02:21:33;7.30;;;3.03;;
6356;SDS011;3211;53.452;-2.264;2023-07-13T02:24:15;4.30;;;3.10;;
6356;SDS011;3211;53.452;-2.264;2023-07-13T02:26:59;5.90;;;3.10;;
6356;SDS011;3211;53.452;-2.264;2023-07-13T02:29:41;6.13;;;3.13;;
6356;SDS011;3211;53.452;-2.264;2023-07-13T02:32:23;8.10;;;3.57;;
6356;SDS011;3211;53.452;-2.264;2023-07-13T02:35:06;5.47;;;3.20;;
6356;SDS011;3211;53.452;-2.264;2023-07-13T02:37:48;6.77;;;4.00;;
6356;SDS011;3211;53.452;-2.264;2023-07-13T02:40:30;8.23;;;3.60;;
6356;SDS011;3211;53.452;-2.264;2023-07-13T02:43:14;6.67;;;3.83;;
6356;SDS011;3211;53.452;-2.264;2023-07-13T02:45:56;6.03;;;3.47;;
6356;SDS011;3211;53.452;-2.264;2023-07-13T02:48:44;6.77;;;3.20;;
6356;SDS011;3211;53.452;-2.264;2023-07-13T02:51:26;10.30;;;4.03;;
6356;SDS011;3211;53.452;-2.264;2023-07-13T02:54:08;7.40;;;3.70;;
6356;SDS011;3211;53.452;-2.264;2023-07-13T02:56:51;9.47;;;4.07;;
6356;SDS011;3211;53.452;-2.264;2023-07-13T02:59:35;5.90;;;3.67;;
6356;SDS011;3211;53.452;-2.264;2023-07-13T03:02:17;6.70;;;3.93;;
6356;SDS011;3211;53.452;-2.264;2023-07-13T03:04:59;7.73;;;3.50;;
6356;SDS011;3211;53.452;-2.264;2023-07-13T03:07:41;8.87;;;3.73;;
6356;SDS011;3211;53.452;-2.264;2023-07-13T03:10:24;5.93;;;3.30;;
6356;SDS011;3211;53.452;-2.264;2023-07-13T03:13:06;6.33;;;3.40;;
6356;SDS011;3211;53.452;-2.264;2023-07-13T03:15:49;5.00;;;3.30;;
6356;SDS011;3211;53.452;-2.264;2023-07-13T03:18:31;7.03;;;3.73;;
6356;SDS011;3211;53.452;-2.264;2023-07-13T03:21:13;4.90;;;3.77;;
6356;SDS011;3211;53.452;-2.264;2023-07-13T03:23:55;6.87;;;4.10;;
6356;SDS011;3211;53.452;-2.264;2023-07-13T03:26:37;8.23;;;3.93;;
6356;SDS011;3211;53.452;-2.264;2023-07-13T03:29:19;7.37;;;3.70;;
6356;SDS011;3211;53.452;-2.264;2023-07-13T03:32:03;6.47;;;3.00;;
6356;SDS011;3211;53.452;-2.264;2023-07-13T03:34:46;7.73;;;4.00;;
6356;SDS011;3211;53.452;-2.264;2023-07-13T03:37:28;5.53;;;3.57;;
6356;SDS011;3211;53.452;-2.264;2023-07-13T03:40:10;7.43;;;3.80;;
6356;SDS011;3211;53.452;-2.264;2023-07-13T03:42:52;5.37;;;3.40;;
6356;SDS011;3211;53.452;-2.264;2023-07-13T03:45:34;8.00;;;3.50;;
6356;SDS011;3211;53.452;-2.264;2023-07-13T03:48:20;9.10;;;3.90;;
6356;SDS011;3211;53.452;-2.264;2023-07-13T03:51:02;5.40;;;3.63;;
6356;SDS011;3211;53.452;-2.264;2023-07-13T03:53:44;6.90;;;3.80;;
6356;SDS011;3211;53.452;-2.264;2023-07-13T03:56:27;7.40;;;3.90;;
6356;SDS011;3211;53.452;-2.264;2023-07-13T03:59:10;6.20;;;3.77;;
6356;SDS011;3211;53.452;-2.264;2023-07-13T04:01:52;6.30;;;4.57;;
6356;SDS011;3211;53.452;-2.264;2023-07-13T04:04:36;7.67;;;4.53;;
6356;SDS011;3211;53.452;-2.264;2023-07-13T04:07:20;8.00;;;3.50;;
6356;SDS011;3211;53.452;-2.264;2023-07-13T04:10:02;7.57;;;4.00;;
6356;SDS011;3211;53.452;-2.264;2023-07-13T04:12:44;7.77;;;3.80;;
6356;SDS011;3211;53.452;-2.264;2023-07-13T04:15:27;8.30;;;4.50;;
6356;SDS011;3211;53.452;-2.264;2023-07-13T04:18:10;12.07;;;3.73;;
6356;SDS011;3211;53.452;-2.264;2023-07-13T04:20:53;4.97;;;3.67;;
6356;SDS011;3211;53.452;-2.264;2023-07-13T04:23:36;8.60;;;4.27;;
6356;SDS011;3211;53.452;-2.264;2023-07-13T04:26:18;7.57;;;4.17;;
6356;SDS011;3211;53.452;-2.264;2023-07-13T04:29:01;8.80;;;4.00;;
6356;SDS011;3211;53.452;-2.264;2023-07-13T04:31:44;6.40;;;3.77;;
6356;SDS011;3211;53.452;-2.264;2023-07-13T04:34:25;7.20;;;4.00;;
6356;SDS011;3211;53.452;-2.264;2023-07-13T04:37:09;8.13;;;4.50;;
6356;SDS011;3211;53.452;-2.264;2023-07-13T04:39:51;6.87;;;3.90;;
6356;SDS011;3211;53.452;-2.264;2023-07-13T04:42:33;12.03;;;3.93;;
6356;SDS011;3211;53.452;-2.264;2023-07-13T04:45:15;8.13;;;4.23;;
6356;SDS011;3211;53.452;-2.264;2023-07-13T04:47:57;10.17;;;3.97;;
6356;SDS011;3211;53.452;-2.264;2023-07-13T04:50:39;7.13;;;4.00;;
6356;SDS011;3211;53.452;-2.264;2023-07-13T04:53:23;8.10;;;4.70;;
6356;SDS011;3211;53.452;-2.264;2023-07-13T04:56:05;14.20;;;4.70;;
6356;SDS011;3211;53.452;-2.264;2023-07-13T04:58:47;7.03;;;4.20;;
6356;SDS011;3211;53.452;-2.264;2023-07-13T05:01:29;8.17;;;4.53;;
6356;SDS011;3211;53.452;-2.264;2023-07-13T05:04:11;9.70;;;4.10;;
6356;SDS011;3211;53.452;-2.264;2023-07-13T05:06:53;8.83;;;4.17;;
6356;SDS011;3211;53.452;-2.264;2023-07-13T05:09:36;7.80;;;3.70;;
6356;SDS011;3211;53.452;-2.264;2023-07-13T05:12:20;8.67;;;3.80;;
6356;SDS011;3211;53.452;-2.264;2023-07-13T05:15:02;11.50;;;4.30;;
6356;SDS011;3211;53.452;-2.264;2023-07-13T05:17:44;7.43;;;3.60;;
6356;SDS011;3211;53.452;-2.264;2023-07-13T05:20:26;8.47;;;3.80;;
6356;SDS011;3211;53.452;-2.264;2023-07-13T05:23:08;7.87;;;3.43;;
6356;SDS011;3211;53.452;-2.264;2023-07-13T05:25:51;7.53;;;3.73;;
6356;SDS011;3211;53.452;-2.264;2023-07-13T05:28:33;6.13;;;3.97;;
6356;SDS011;3211;53.452;-2.264;2023-07-13T05:31:15;5.40;;;3.10;;
6356;SDS011;3211;53.452;-2.264;2023-07-13T05:33:57;7.80;;;4.03;;
6356;SDS011;3211;53.452;-2.264;2023-07-13T05:36:39;4.27;;;3.10;;
6356;SDS011;3211;53.452;-2.264;2023-07-13T05:39:21;9.13;;;3.50;;
6356;SDS011;3211;53.452;-2.264;2023-07-13T05:42:05;6.80;;;3.70;;
6356;SDS011;3211;53.452;-2.264;2023-07-13T05:44:47;10.33;;;3.67;;
6356;SDS011;3211;53.452;-2.264;2023-07-13T05:47:29;6.73;;;3.20;;
6356;SDS011;3211;53.452;-2.264;2023-07-13T05:50:11;5.27;;;3.30;;
6356;SDS011;3211;53.452;-2.264;2023-07-13T05:52:53;8.77;;;3.27;;
6356;SDS011;3211;53.452;-2.264;2023-07-13T05:55:40;7.10;;;3.17;;
6356;SDS011;3211;53.452;-2.264;2023-07-13T05:58:24;6.30;;;3.10;;
6356;SDS011;3211;53.452;-2.264;2023-07-13T06:01:06;5.73;;;3.20;;
6356;SDS011;3211;53.452;-2.264;2023-07-13T06:03:51;5.53;;;2.93;;
6356;SDS011;3211;53.452;-2.264;2023-07-13T06:06:32;7.97;;;3.10;;
6356;SDS011;3211;53.452;-2.264;2023-07-13T06:09:14;5.30;;;2.40;;
6356;SDS011;3211;53.452;-2.264;2023-07-13T06:11:56;5.97;;;3.00;;
6356;SDS011;3211;53.452;-2.264;2023-07-13T06:14:40;4.73;;;2.70;;
6356;SDS011;3211;53.452;-2.264;2023-07-13T06:17:22;9.57;;;2.80;;
6356;SDS011;3211;53.452;-2.264;2023-07-13T06:20:04;3.23;;;2.70;;
6356;SDS011;3211;53.452;-2.264;2023-07-13T06:22:47;5.00;;;3.03;;
6356;SDS011;3211;53.452;-2.264;2023-07-13T06:25:29;5.10;;;2.63;;
6356;SDS011;3211;53.452;-2.264;2023-07-13T06:28:11;5.40;;;2.63;;
6356;SDS011;3211;53.452;-2.264;2023-07-13T06:30:54;4.60;;;2.63;;
6356;SDS011;3211;53.452;-2.264;2023-07-13T06:33:36;4.90;;;2.30;;
6356;SDS011;3211;53.452;-2.264;2023-07-13T06:36:19;7.10;;;2.70;;
6356;SDS011;3211;53.452;-2.264;2023-07-13T06:39:01;3.50;;;2.40;;
6356;SDS011;3211;53.452;-2.264;2023-07-13T06:41:43;5.77;;;2.70;;
6356;SDS011;3211;53.452;-2.264;2023-07-13T06:44:25;3.40;;;2.30;;
6356;SDS011;3211;53.452;-2.264;2023-07-13T06:47:08;3.47;;;2.80;;
6356;SDS011;3211;53.452;-2.264;2023-07-13T06:49:50;4.97;;;2.83;;
6356;SDS011;3211;53.452;-2.264;2023-07-13T06:52:32;5.33;;;2.30;;
6356;SDS011;3211;53.452;-2.264;2023-07-13T06:55:14;3.17;;;2.40;;
6356;SDS011;3211;53.452;-2.264;2023-07-13T06:57:56;6.80;;;2.47;;
6356;SDS011;3211;53.452;-2.264;2023-07-13T07:00:39;4.03;;;2.53;;
6356;SDS011;3211;53.452;-2.264;2023-07-13T07:03:22;3.73;;;2.40;;
6356;SDS011;3211;53.452;-2.264;2023-07-13T07:06:10;5.37;;;2.60;;
6356;SDS011;3211;53.452;-2.264;2023-07-13T07:08:55;5.27;;;2.57;;
6356;SDS011;3211;53.452;-2.264;2023-07-13T07:11:37;5.03;;;2.20;;
6356;SDS011;3211;53.452;-2.264;2023-07-13T07:14:19;5.20;;;2.97;;
6356;SDS011;3211;53.452;-2.264;2023-07-13T07:17:00;3.20;;;2.40;;
6356;SDS011;3211;53.452;-2.264;2023-07-13T07:19:44;6.90;;;2.83;;
6356;SDS011;3211;53.452;-2.264;2023-07-13T07:22:26;5.43;;;2.53;;
6356;SDS011;3211;53.452;-2.264;2023-07-13T07:25:08;5.20;;;2.20;;
6356;SDS011;3211;53.452;-2.264;2023-07-13T07:27:50;5.07;;;2.47;;
6356;SDS011;3211;53.452;-2.264;2023-07-13T07:30:32;4.50;;;2.40;;
6356;SDS011;3211;53.452;-2.264;2023-07-13T07:33:14;5.03;;;2.33;;
6356;SDS011;3211;53.452;-2.264;2023-07-13T07:35:57;8.07;;;2.70;;
6356;SDS011;3211;53.452;-2.264;2023-07-13T07:38:39;2.80;;;2.10;;
6356;SDS011;3211;53.452;-2.264;2023-07-13T07:41:21;5.80;;;2.07;;
6356;SDS011;3211;53.452;-2.264;2023-07-13T07:44:03;3.57;;;1.97;;
6356;SDS011;3211;53.452;-2.264;2023-07-13T07:46:47;6.33;;;2.27;;
6356;SDS011;3211;53.452;-2.264;2023-07-13T07:49:29;3.50;;;2.00;;
6356;SDS011;3211;53.452;-2.264;2023-07-13T07:52:12;5.30;;;2.40;;
6356;SDS011;3211;53.452;-2.264;2023-07-13T07:54:54;4.30;;;2.10;;
6356;SDS011;3211;53.452;-2.264;2023-07-13T07:57:36;6.93;;;2.20;;
6356;SDS011;3211;53.452;-2.264;2023-07-13T08:00:19;5.20;;;1.80;;
6356;SDS011;3211;53.452;-2.264;2023-07-13T08:03:01;3.70;;;1.97;;
6356;SDS011;3211;53.452;-2.264;2023-07-13T08:05:43;2.50;;;1.73;;
6356;SDS011;3211;53.452;-2.264;2023-07-13T08:08:27;3.17;;;1.93;;
6356;SDS011;3211;53.452;-2.264;2023-07-13T08:11:09;2.43;;;1.80;;
6356;SDS011;3211;53.452;-2.264;2023-07-13T08:13:51;4.30;;;2.17;;
6356;SDS011;3211;53.452;-2.264;2023-07-13T08:16:33;5.53;;;1.97;;
6356;SDS011;3211;53.452;-2.264;2023-07-13T08:19:15;2.87;;;1.77;;
6356;SDS011;3211;53.452;-2.264;2023-07-13T08:21:57;4.20;;;2.10;;
6356;SDS011;3211;53.452;-2.264;2023-07-13T08:24:40;4.17;;;1.93;;
6356;SDS011;3211;53.452;-2.264;2023-07-13T08:27:23;5.83;;;2.20;;
6356;SDS011;3211;53.452;-2.264;2023-07-13T08:30:07;3.00;;;1.83;;
6356;SDS011;3211;53.452;-2.264;2023-07-13T08:32:49;4.30;;;1.93;;
6356;SDS011;3211;53.452;-2.264;2023-07-13T08:35:31;3.40;;;1.80;;
6356;SDS011;3211;53.452;-2.264;2023-07-13T08:38:13;2.23;;;1.40;;
6356;SDS011;3211;53.452;-2.264;2023-07-13T08:40:57;4.60;;;1.70;;
6356;SDS011;3211;53.452;-2.264;2023-07-13T08:43:39;3.53;;;1.93;;
6356;SDS011;3211;53.452;-2.264;2023-07-13T08:46:23;3.10;;;1.53;;
6356;SDS011;3211;53.452;-2.264;2023-07-13T08:49:09;2.70;;;1.90;;
6356;SDS011;3211;53.452;-2.264;2023-07-13T08:51:57;2.90;;;1.90;;
6356;SDS011;3211;53.452;-2.264;2023-07-13T08:54:43;3.80;;;1.90;;
6356;SDS011;3211;53.452;-2.264;2023-07-13T08:57:33;3.17;;;1.97;;
6356;SDS011;3211;53.452;-2.264;2023-07-13T09:00:16;3.70;;;1.50;;
6356;SDS011;3211;53.452;-2.264;2023-07-13T09:02:58;2.63;;;1.70;;
6356;SDS011;3211;53.452;-2.264;2023-07-13T09:05:41;2.50;;;1.60;;
6356;SDS011;3211;53.452;-2.264;2023-07-13T09:08:31;2.80;;;1.60;;
6356;SDS011;3211;53.452;-2.264;2023-07-13T09:11:23;4.23;;;1.80;;
6356;SDS011;3211;53.452;-2.264;2023-07-13T09:14:25;3.83;;;1.93;;
6356;SDS011;3211;53.452;-2.264;2023-07-13T09:17:18;2.37;;;1.70;;
6356;SDS011;3211;53.452;-2.264;2023-07-13T09:20:08;2.80;;;2.07;;
6356;SDS011;3211;53.452;-2.264;2023-07-13T09:23:07;4.57;;;2.03;;
6356;SDS011;3211;53.452;-2.264;2023-07-13T09:26:00;7.87;;;2.20;;
6356;SDS011;3211;53.452;-2.264;2023-07-13T09:28:46;3.37;;;1.67;;
6356;SDS011;3211;53.452;-2.264;2023-07-13T09:31:34;8.00;;;2.07;;
6356;SDS011;3211;53.452;-2.264;2023-07-13T09:34:20;5.40;;;1.93;;
6356;SDS011;3211;53.452;-2.264;2023-07-13T09:37:02;5.27;;;2.20;;
6356;SDS011;3211;53.452;-2.264;2023-07-13T09:39:46;6.90;;;2.20;;
6356;SDS011;3211;53.452;-2.264;2023-07-13T09:42:28;3.60;;;1.70;;
6356;SDS011;3211;53.452;-2.264;2023-07-13T09:45:10;3.60;;;1.80;;
6356;SDS011;3211;53.452;-2.264;2023-07-13T09:48:11;3.20;;;1.90;;
6356;SDS011;3211;53.452;-2.264;2023-07-13T09:50:54;4.77;;;1.80;;
6356;SDS011;3211;53.452;-2.264;2023-07-13T09:53:37;5.97;;;1.83;;
6356;SDS011;3211;53.452;-2.264;2023-07-13T09:56:20;3.40;;;2.07;;
6356;SDS011;3211;53.452;-2.264;2023-07-13T09:59:03;2.43;;;1.60;;
6356;SDS011;3211;53.452;-2.264;2023-07-13T10:01:45;4.00;;;2.00;;
6356;SDS011;3211;53.452;-2.264;2023-07-13T10:04:32;5.00;;;2.37;;
6356;SDS011;3211;53.452;-2.264;2023-07-13T10:07:14;3.67;;;2.00;;
6356;SDS011;3211;53.452;-2.264;2023-07-13T10:09:59;3.10;;;1.40;;
6356;SDS011;3211;53.452;-2.264;2023-07-13T10:12:42;3.13;;;1.80;;
6356;SDS011;3211;53.452;-2.264;2023-07-13T10:15:25;4.70;;;1.87;;
6356;SDS011;3211;53.452;-2.264;2023-07-13T10:18:08;4.20;;;1.90;;
6356;SDS011;3211;53.452;-2.264;2023-07-13T10:20:53;5.30;;;2.23;;
6356;SDS011;3211;53.452;-2.264;2023-07-13T10:23:47;2.73;;;1.83;;
6356;SDS011;3211;53.452;-2.264;2023-07-13T10:26:33;2.90;;;1.83;;
6356;SDS011;3211;53.452;-2.264;2023-07-13T10:29:15;4.80;;;1.47;;
6356;SDS011;3211;53.452;-2.264;2023-07-13T10:31:59;6.67;;;2.60;;
6356;SDS011;3211;53.452;-2.264;2023-07-13T10:34:41;7.07;;;2.20;;
6356;SDS011;3211;53.452;-2.264;2023-07-13T10:37:29;2.63;;;1.93;;
6356;SDS011;3211;53.452;-2.264;2023-07-13T10:40:18;4.93;;;2.27;;
6356;SDS011;3211;53.452;-2.264;2023-07-13T10:43:17;2.07;;;1.87;;
6356;SDS011;3211;53.452;-2.264;2023-07-13T10:46:03;4.60;;;1.90;;
6356;SDS011;3211;53.452;-2.264;2023-07-13T10:48:50;3.00;;;1.97;;
6356;SDS011;3211;53.452;-2.264;2023-07-13T10:51:34;3.23;;;1.80;;
6356;SDS011;3211;53.452;-2.264;2023-07-13T10:54:19;4.20;;;1.90;;
6356;SDS011;3211;53.452;-2.264;2023-07-13T10:57:16;3.93;;;1.90;;
6356;SDS011;3211;53.452;-2.264;2023-07-13T11:00:13;6.60;;;2.33;;
6356;SDS011;3211;53.452;-2.264;2023-07-13T11:02:57;3.57;;;1.83;;
6356;SDS011;3211;53.452;-2.264;2023-07-13T11:05:42;5.10;;;1.53;;
6356;SDS011;3211;53.452;-2.264;2023-07-13T11:08:31;2.07;;;1.73;;
6356;SDS011;3211;53.452;-2.264;2023-07-13T11:11:35;2.70;;;1.70;;
6356;SDS011;3211;53.452;-2.264;2023-07-13T11:14:25;5.30;;;2.10;;
6356;SDS011;3211;53.452;-2.264;2023-07-13T12:39:59;3.70;;;2.00;;
6356;SDS011;3211;53.452;-2.264;2023-07-13T12:42:41;4.77;;;2.00;;
6356;SDS011;3211;53.452;-2.264;2023-07-13T12:45:24;3.03;;;2.10;;
6356;SDS011;3211;53.452;-2.264;2023-07-13T12:48:12;4.60;;;2.10;;
6356;SDS011;3211;53.452;-2.264;2023-07-13T12:51:00;2.37;;;1.53;;
6356;SDS011;3211;53.452;-2.264;2023-07-13T12:53:47;3.10;;;2.10;;
6356;SDS011;3211;53.452;-2.264;2023-07-13T12:56:35;4.27;;;2.00;;
6356;SDS011;3211;53.452;-2.264;2023-07-13T12:59:18;2.60;;;2.00;;
6356;SDS011;3211;53.452;-2.264;2023-07-13T13:02:02;3.30;;;2.10;;
6356;SDS011;3211;53.452;-2.264;2023-07-13T13:04:51;2.47;;;2.00;;
6356;SDS011;3211;53.452;-2.264;2023-07-13T13:07:35;2.20;;;1.73;;
6356;SDS011;3211;53.452;-2.264;2023-07-13T13:10:17;4.70;;;2.10;;
6356;SDS011;3211;53.452;-2.264;2023-07-13T13:13:02;3.83;;;1.83;;
6356;SDS011;3211;53.452;-2.264;2023-07-13T13:15:45;4.33;;;2.03;;
6356;SDS011;3211;53.452;-2.264;2023-07-13T13:18:27;6.80;;;2.50;;
6356;SDS011;3211;53.452;-2.264;2023-07-13T13:21:11;5.00;;;2.00;;
6356;SDS011;3211;53.452;-2.264;2023-07-13T13:23:53;3.87;;;2.00;;
6356;SDS011;3211;53.452;-2.264;2023-07-13T13:26:35;4.07;;;1.80;;
6356;SDS011;3211;53.452;-2.264;2023-07-13T13:29:20;3.30;;;2.10;;
6356;SDS011;3211;53.452;-2.264;2023-07-13T13:32:04;3.60;;;2.13;;
6356;SDS011;3211;53.452;-2.264;2023-07-13T13:34:51;4.43;;;2.30;;
6356;SDS011;3211;53.452;-2.264;2023-07-13T13:37:34;3.27;;;1.90;;
6356;SDS011;3211;53.452;-2.264;2023-07-13T13:40:16;2.70;;;2.13;;
6356;SDS011;3211;53.452;-2.264;2023-07-13T13:43:00;3.43;;;1.80;;
6356;SDS011;3211;53.452;-2.264;2023-07-13T13:45:43;4.23;;;2.10;;
6356;SDS011;3211;53.452;-2.264;2023-07-13T13:48:27;3.10;;;2.20;;
6356;SDS011;3211;53.452;-2.264;2023-07-13T13:51:13;3.97;;;2.00;;
6356;SDS011;3211;53.452;-2.264;2023-07-13T13:54:01;3.70;;;2.60;;
6356;SDS011;3211;53.452;-2.264;2023-07-13T13:56:43;5.30;;;2.50;;
6356;SDS011;3211;53.452;-2.264;2023-07-13T13:59:27;4.20;;;2.43;;
6356;SDS011;3211;53.452;-2.264;2023-07-13T14:02:15;3.47;;;2.10;;
6356;SDS011;3211;53.452;-2.264;2023-07-13T14:05:11;3.10;;;2.00;;
6356;SDS011;3211;53.452;-2.264;2023-07-13T14:07:54;6.33;;;2.40;;
6356;SDS011;3211;53.452;-2.264;2023-07-13T14:10:37;5.77;;;2.40;;
6356;SDS011;3211;53.452;-2.264;2023-07-13T14:13:19;5.10;;;1.93;;
6356;SDS011;3211;53.452;-2.264;2023-07-13T14:16:11;3.80;;;2.20;;
6356;SDS011;3211;53.452;-2.264;2023-07-13T14:18:55;6.00;;;2.20;;
6356;SDS011;3211;53.452;-2.264;2023-07-13T14:21:40;3.70;;;2.23;;
6356;SDS011;3211;53.452;-2.264;2023-07-13T14:24:22;6.63;;;2.00;;
6356;SDS011;3211;53.452;-2.264;2023-07-13T14:27:08;5.43;;;2.37;;
6356;SDS011;3211;53.452;-2.264;2023-07-13T14:29:51;3.00;;;1.73;;
6356;SDS011;3211;53.452;-2.264;2023-07-13T14:32:33;3.37;;;2.10;;
6356;SDS011;3211;53.452;-2.264;2023-07-13T14:35:20;6.10;;;2.53;;
6356;SDS011;3211;53.452;-2.264;2023-07-13T14:38:04;3.40;;;2.10;;
6356;SDS011;3211;53.452;-2.264;2023-07-13T14:40:46;3.30;;;1.87;;
6356;SDS011;3211;53.452;-2.264;2023-07-13T14:43:28;3.93;;;2.10;;
6356;SDS011;3211;53.452;-2.264;2023-07-13T14:46:12;4.37;;;2.30;;
6356;SDS011;3211;53.452;-2.264;2023-07-13T14:49:09;5.50;;;2.30;;
6356;SDS011;3211;53.452;-2.264;2023-07-13T14:51:58;4.00;;;2.07;;
6356;SDS011;3211;53.452;-2.264;2023-07-13T14:54:42;3.30;;;2.10;;
6356;SDS011;3211;53.452;-2.264;2023-07-13T14:57:25;3.43;;;1.90;;
6356;SDS011;3211;53.452;-2.264;2023-07-13T15:00:15;4.60;;;2.23;;
6356;SDS011;3211;53.452;-2.264;2023-07-13T15:02:59;6.77;;;2.27;;
6356;SDS011;3211;53.452;-2.264;2023-07-13T15:05:45;4.33;;;2.00;;
6356;SDS011;3211;53.452;-2.264;2023-07-13T15:08:29;3.00;;;1.80;;
6356;SDS011;3211;53.452;-2.264;2023-07-13T15:11:11;2.23;;;1.60;;
6356;SDS011;3211;53.452;-2.264;2023-07-13T15:13:53;3.03;;;1.97;;
6356;SDS011;3211;53.452;-2.264;2023-07-13T15:16:36;4.63;;;2.07;;
6356;SDS011;3211;53.452;-2.264;2023-07-13T15:19:18;4.40;;;1.90;;
6356;SDS011;3211;53.452;-2.264;2023-07-13T15:22:07;5.13;;;2.00;;
6356;SDS011;3211;53.452;-2.264;2023-07-13T15:24:52;2.90;;;1.60;;
6356;SDS011;3211;53.452;-2.264;2023-07-13T15:27:34;2.90;;;1.60;;
6356;SDS011;3211;53.452;-2.264;2023-07-13T15:30:18;5.80;;;1.83;;
6356;SDS011;3211;53.452;-2.264;2023-07-13T15:33:09;1.70;;;1.50;;
6356;SDS011;3211;53.452;-2.264;2023-07-13T15:35:53;2.13;;;1.53;;
6356;SDS011;3211;53.452;-2.264;2023-07-13T15:38:35;3.10;;;1.93;;
6356;SDS011;3211;53.452;-2.264;2023-07-13T15:41:20;4.23;;;2.07;;
6356;SDS011;3211;53.452;-2.264;2023-07-13T15:44:07;4.67;;;2.10;;
6356;SDS011;3211;53.452;-2.264;2023-07-13T15:47:03;4.30;;;2.10;;
6356;SDS011;3211;53.452;-2.264;2023-07-13T15:49:49;3.33;;;1.77;;
6356;SDS011;3211;53.452;-2.264;2023-07-13T15:52:31;3.83;;;2.00;;
6356;SDS011;3211;53.452;-2.264;2023-07-13T15:55:14;4.40;;;2.10;;
6356;SDS011;3211;53.452;-2.264;2023-07-13T15:57:58;4.87;;;2.07;;
6356;SDS011;3211;53.452;-2.264;2023-07-13T16:00:44;2.67;;;1.80;;
6356;SDS011;3211;53.452;-2.264;2023-07-13T16:03:26;4.90;;;1.97;;
6356;SDS011;3211;53.452;-2.264;2023-07-13T16:06:13;2.77;;;1.80;;
6356;SDS011;3211;53.452;-2.264;2023-07-13T16:08:57;3.80;;;1.90;;
6356;SDS011;3211;53.452;-2.264;2023-07-13T16:11:43;2.67;;;1.90;;
6356;SDS011;3211;53.452;-2.264;2023-07-13T16:14:27;2.50;;;1.57;;
6356;SDS011;3211;53.452;-2.264;2023-07-13T16:17:09;3.00;;;1.70;;
6356;SDS011;3211;53.452;-2.264;2023-07-13T16:19:51;5.80;;;2.00;;
6356;SDS011;3211;53.452;-2.264;2023-07-13T16:22:36;4.07;;;2.33;;
6356;SDS011;3211;53.452;-2.264;2023-07-13T16:25:20;3.80;;;2.13;;
6356;SDS011;3211;53.452;-2.264;2023-07-13T16:28:09;6.70;;;2.57;;
6356;SDS011;3211;53.452;-2.264;2023-07-13T16:30:53;3.80;;;2.27;;
6356;SDS011;3211;53.452;-2.264;2023-07-13T16:33:35;6.37;;;2.10;;
6356;SDS011;3211;53.452;-2.264;2023-07-13T16:36:17;4.20;;;1.90;;
6356;SDS011;3211;53.452;-2.264;2023-07-13T16:38:59;10.10;;;2.27;;
6356;SDS011;3211;53.452;-2.264;2023-07-13T16:41:44;2.30;;;1.90;;
6356;SDS011;3211;53.452;-2.264;2023-07-13T16:44:26;5.13;;;2.10;;
6356;SDS011;3211;53.452;-2.264;2023-07-13T16:47:13;4.33;;;1.83;;
6356;SDS011;3211;53.452;-2.264;2023-07-13T16:49:57;5.33;;;1.80;;
6356;SDS011;3211;53.452;-2.264;2023-07-13T16:52:39;3.93;;;2.10;;
6356;SDS011;3211;53.452;-2.264;2023-07-13T16:55:21;4.60;;;1.87;;
6356;SDS011;3211;53.452;-2.264;2023-07-13T16:58:08;3.63;;;1.77;;
6356;SDS011;3211;53.452;-2.264;2023-07-13T17:00:51;2.97;;;1.50;;
6356;SDS011;3211;53.452;-2.264;2023-07-13T17:03:35;2.73;;;2.07;;
6356;SDS011;3211;53.452;-2.264;2023-07-13T17:06:21;5.50;;;2.60;;
6356;SDS011;3211;53.452;-2.264;2023-07-13T17:09:05;4.60;;;2.13;;
6356;SDS011;3211;53.452;-2.264;2023-07-13T17:11:51;2.43;;;1.77;;
6356;SDS011;3211;53.452;-2.264;2023-07-13T17:14:34;3.33;;;2.13;;
6356;SDS011;3211;53.452;-2.264;2023-07-13T17:17:18;2.30;;;1.70;;
6356;SDS011;3211;53.452;-2.264;2023-07-13T17:20:09;4.13;;;2.27;;
6356;SDS011;3211;53.452;-2.264;2023-07-13T17:22:56;2.30;;;1.73;;
6356;SDS011;3211;53.452;-2.264;2023-07-13T17:25:38;3.73;;;1.83;;
6356;SDS011;3211;53.452;-2.264;2023-07-13T17:28:21;2.60;;;1.77;;
6356;SDS011;3211;53.452;-2.264;2023-07-13T17:31:03;4.00;;;2.50;;
6356;SDS011;3211;53.452;-2.264;2023-07-13T17:33:48;2.73;;;1.73;;
6356;SDS011;3211;53.452;-2.264;2023-07-13T17:36:32;2.90;;;1.73;;
6356;SDS011;3211;53.452;-2.264;2023-07-13T17:39:15;3.73;;;1.70;;
6356;SDS011;3211;53.452;-2.264;2023-07-13T17:41:58;3.20;;;2.00;;
6356;SDS011;3211;53.452;-2.264;2023-07-13T17:44:44;2.67;;;2.00;;
6356;SDS011;3211;53.452;-2.264;2023-07-13T17:47:26;3.83;;;1.90;;
6356;SDS011;3211;53.452;-2.264;2023-07-13T17:50:09;3.60;;;1.70;;
6356;SDS011;3211;53.452;-2.264;2023-07-13T17:52:55;5.00;;;2.40;;
6356;SDS011;3211;53.452;-2.264;2023-07-13T17:55:36;3.40;;;2.27;;
6356;SDS011;3211;53.452;-2.264;2023-07-13T17:58:18;4.47;;;2.03;;
6356;SDS011;3211;53.452;-2.264;2023-07-13T18:01:14;5.20;;;2.87;;
6356;SDS011;3211;53.452;-2.264;2023-07-13T18:03:59;2.40;;;1.87;;